Time;durP1;ratioP1;P1;durP2;ratioP2;P2;SDS_P1;SDS_P2;PMS_P1;PMS_P2;Temp;Humidity;BMP_temperature;BMP_pressure;BME280_temperature;BME280_humidity;BME280_pressure;Samples;Min_cycle;Max_cycle;Signal;HPM_P1;HPM_P2
2022/10/25 00:00:54;;;;;;;10.55;2.08;;;;;;;;;;5087625;28;20421;-58
2022/10/25 00:03:19;;;;;;;8.75;2.45;;;;;;;;;;5080215;28;20050;-58
2022/10/25 00:05:45;;;;;;;5.50;2.10;;;;;;;;;;5074729;28;20413;-58
2022/10/25 00:08:10;;;;;;;12.07;1.90;;;;;;;;;;5077120;28;20111;-58
2022/10/25 00:10:35;;;;;;;7.10;2.13;;;;;;;;;;5086382;28;20485;-58
2022/10/25 00:13:01;;;;;;;8.50;2.22;;;;;;;;;;5093653;28;20040;-59
2022/10/25 00:15:26;;;;;;;7.65;1.90;;;;;;;;;;5077776;28;20028;-59
2022/10/25 00:17:51;;;;;;;10.82;2.20;;;;;;;;;;5077904;28;20017;-58
2022/10/25 00:20:17;;;;;;;9.50;2.20;;;;;;;;;;5089730;28;20046;-55
2022/10/25 00:22:42;;;;;;;8.40;2.15;;;;;;;;;;5090684;28;20008;-62
2022/10/25 00:25:07;;;;;;;11.30;2.30;;;;;;;;;;5092946;28;20089;-56
2022/10/25 00:27:33;;;;;;;11.40;2.40;;;;;;;;;;5084221;28;20226;-55
2022/10/25 00:29:58;;;;;;;7.95;2.05;;;;;;;;;;5091965;28;20133;-56
2022/10/25 00:32:24;;;;;;;10.13;2.38;;;;;;;;;;5070676;28;20020;-56
2022/10/25 00:34:49;;;;;;;7.68;2.30;;;;;;;;;;5083452;28;20374;-56
2022/10/25 00:37:15;;;;;;;8.57;1.80;;;;;;;;;;5088207;28;20510;-58
2022/10/25 00:39:40;;;;;;;10.20;2.15;;;;;;;;;;5087691;28;20020;-56
2022/10/25 00:42:05;;;;;;;8.93;2.30;;;;;;;;;;5087462;28;20811;-56
2022/10/25 00:44:49;;;;;;;10.98;2.17;;;;;;;;;;5083798;28;20039;-56
2022/10/25 00:47:20;;;;;;;9.70;2.17;;;;;;;;;;5066570;28;20022;-59
2022/10/25 00:49:46;;;;;;;8.55;2.00;;;;;;;;;;5086148;28;20022;-58
2022/10/25 00:52:11;;;;;;;9.27;1.80;;;;;;;;;;5095420;28;20373;-59
2022/10/25 00:54:38;;;;;;;6.60;1.75;;;;;;;;;;5089313;28;20091;-58
2022/10/25 00:57:09;;;;;;;6.15;1.98;;;;;;;;;;5089337;28;20535;-56
2022/10/25 00:59:34;;;;;;;10.88;2.08;;;;;;;;;;5089391;28;20391;-57
2022/10/25 01:02:00;;;;;;;12.10;2.00;;;;;;;;;;5092566;28;20435;-58
2022/10/25 01:04:26;;;;;;;13.80;2.10;;;;;;;;;;5097403;28;20372;-57
2022/10/25 01:06:51;;;;;;;10.65;1.98;;;;;;;;;;5090263;28;20043;-59
2022/10/25 01:09:23;;;;;;;7.95;2.20;;;;;;;;;;5089669;28;20520;-58
2022/10/25 01:11:49;;;;;;;9.10;2.50;;;;;;;;;;5090850;28;20024;-57
2022/10/25 01:14:14;;;;;;;8.07;2.15;;;;;;;;;;5096874;28;20015;-56
2022/10/25 01:16:42;;;;;;;10.40;2.08;;;;;;;;;;5095744;28;20038;-56
2022/10/25 01:19:26;;;;;;;9.23;2.22;;;;;;;;;;5088877;28;20085;-58
2022/10/25 01:22:02;;;;;;;11.68;2.67;;;;;;;;;;5095301;28;20008;-57
2022/10/25 01:24:33;;;;;;;13.60;2.20;;;;;;;;;;5093203;28;20032;-57
2022/10/25 01:27:17;;;;;;;7.18;2.20;;;;;;;;;;5094431;28;20035;-56
2022/10/25 01:29:42;;;;;;;11.27;2.20;;;;;;;;;;5082992;28;20470;-57
2022/10/25 01:32:10;;;;;;;8.55;2.00;;;;;;;;;;5103051;28;20077;-56
2022/10/25 01:34:40;;;;;;;7.85;2.22;;;;;;;;;;5095033;28;20374;-57
2022/10/25 01:37:24;;;;;;;7.28;2.03;;;;;;;;;;5079677;28;20020;-56
2022/10/25 01:39:53;;;;;;;6.85;1.92;;;;;;;;;;5092713;28;20043;-57
2022/10/25 01:42:29;;;;;;;8.60;1.88;;;;;;;;;;5093747;28;20110;-57
2022/10/25 01:45:05;;;;;;;13.60;2.40;;;;;;;;;;5091039;28;20061;-57
2022/10/25 01:47:49;;;;;;;8.38;2.20;;;;;;;;;;5090114;28;20119;-57
2022/10/25 01:50:23;;;;;;;6.63;2.30;;;;;;;;;;5092987;28;20051;-57
2022/10/25 01:52:49;;;;;;;12.73;2.15;;;;;;;;;;5081272;28;20410;-57
2022/10/25 01:55:14;;;;;;;10.30;2.42;;;;;;;;;;5097521;28;20023;-57
2022/10/25 01:57:52;;;;;;;5.75;2.15;;;;;;;;;;5092775;28;20027;-57
2022/10/25 02:00:17;;;;;;;8.30;2.00;;;;;;;;;;5080194;28;20039;-57
2022/10/25 02:03:01;;;;;;;9.30;2.22;;;;;;;;;;5079583;28;20021;-57
2022/10/25 02:05:38;;;;;;;11.50;2.33;;;;;;;;;;5088007;28;20394;-57
2022/10/25 02:08:03;;;;;;;8.75;2.00;;;;;;;;;;5085602;28;20017;-57
2022/10/25 02:10:37;;;;;;;10.77;2.15;;;;;;;;;;5091028;28;20065;-57
2022/10/25 02:13:02;;;;;;;8.68;2.65;;;;;;;;;;5092584;28;20040;-57
2022/10/25 02:15:33;;;;;;;11.80;2.20;;;;;;;;;;5091999;28;20030;-57
2022/10/25 02:17:58;;;;;;;8.25;2.25;;;;;;;;;;5086932;28;20107;-56
2022/10/25 02:20:24;;;;;;;9.48;2.20;;;;;;;;;;5083622;28;20485;-57
2022/10/25 02:22:50;;;;;;;9.77;2.70;;;;;;;;;;5089151;28;20212;-58
2022/10/25 02:25:15;;;;;;;10.40;2.28;;;;;;;;;;5090280;28;20070;-58
2022/10/25 02:27:40;;;;;;;7.82;2.58;;;;;;;;;;5089984;28;20035;-57
2022/10/25 02:30:06;;;;;;;9.95;2.40;;;;;;;;;;5093483;28;20076;-57
2022/10/25 02:32:31;;;;;;;6.93;2.08;;;;;;;;;;5090932;28;20060;-58
2022/10/25 02:34:56;;;;;;;7.05;2.22;;;;;;;;;;5089305;28;20143;-56
2022/10/25 02:37:21;;;;;;;12.23;2.30;;;;;;;;;;5100573;28;20323;-58
2022/10/25 02:39:47;;;;;;;9.23;2.30;;;;;;;;;;5089936;28;20122;-57
2022/10/25 02:42:12;;;;;;;12.38;3.15;;;;;;;;;;5078061;28;20031;-57
2022/10/25 02:44:37;;;;;;;11.65;3.08;;;;;;;;;;5084863;28;20123;-57
2022/10/25 02:47:02;;;;;;;13.23;2.55;;;;;;;;;;5094629;28;20023;-57
2022/10/25 02:49:28;;;;;;;17.13;2.60;;;;;;;;;;5090632;28;20042;-57
2022/10/25 02:51:53;;;;;;;14.13;2.42;;;;;;;;;;5091302;28;20374;-58
2022/10/25 02:54:18;;;;;;;7.63;2.25;;;;;;;;;;5086507;28;20116;-57
2022/10/25 02:56:43;;;;;;;14.45;2.83;;;;;;;;;;5086734;28;20024;-58
2022/10/25 02:59:09;;;;;;;12.50;2.47;;;;;;;;;;5094727;28;20024;-58
2022/10/25 03:01:35;;;;;;;12.13;2.63;;;;;;;;;;5076918;28;20024;-57
2022/10/25 03:04:00;;;;;;;6.60;2.38;;;;;;;;;;5078788;28;20056;-58
2022/10/25 03:06:25;;;;;;;11.02;2.45;;;;;;;;;;5085044;28;20043;-58
2022/10/25 03:08:50;;;;;;;11.82;2.40;;;;;;;;;;5091744;28;20021;-57
2022/10/25 03:11:16;;;;;;;18.10;2.63;;;;;;;;;;5093484;28;20019;-57
2022/10/25 03:13:41;;;;;;;11.00;2.45;;;;;;;;;;5084356;28;20085;-58
2022/10/25 03:16:06;;;;;;;9.70;2.60;;;;;;;;;;5089209;28;20020;-58
2022/10/25 03:18:32;;;;;;;10.52;2.78;;;;;;;;;;5084015;28;20024;-58
2022/10/25 03:20:57;;;;;;;11.82;2.50;;;;;;;;;;5083433;28;20575;-56
2022/10/25 03:23:23;;;;;;;11.20;2.47;;;;;;;;;;5076542;28;20036;-57
2022/10/25 03:25:51;;;;;;;7.15;2.33;;;;;;;;;;5080442;28;20118;-58
2022/10/25 03:28:16;;;;;;;9.55;2.55;;;;;;;;;;5072228;28;20020;-57
2022/10/25 03:30:42;;;;;;;13.65;2.80;;;;;;;;;;5076275;28;20019;-57
2022/10/25 03:33:07;;;;;;;11.18;2.35;;;;;;;;;;5079427;28;20032;-57
2022/10/25 03:35:32;;;;;;;7.90;2.25;;;;;;;;;;5080150;28;20024;-58
2022/10/25 03:37:58;;;;;;;14.25;2.65;;;;;;;;;;5082641;28;20063;-58
2022/10/25 03:40:23;;;;;;;7.03;2.50;;;;;;;;;;5086573;28;20023;-58
2022/10/25 03:42:48;;;;;;;13.32;2.70;;;;;;;;;;5080836;28;20233;-58
2022/10/25 03:45:13;;;;;;;15.40;3.00;;;;;;;;;;5091272;28;20022;-57
2022/10/25 03:47:39;;;;;;;13.57;3.00;;;;;;;;;;5082616;28;20470;-58
2022/10/25 03:50:04;;;;;;;11.68;2.85;;;;;;;;;;5093871;28;20024;-57
2022/10/25 03:52:30;;;;;;;13.77;3.05;;;;;;;;;;5083872;28;20090;-57
2022/10/25 03:54:55;;;;;;;10.77;2.33;;;;;;;;;;5092737;28;20012;-58
2022/10/25 03:57:20;;;;;;;16.10;3.38;;;;;;;;;;5087238;28;20020;-58
2022/10/25 03:59:45;;;;;;;22.10;3.50;;;;;;;;;;5085062;28;20024;-58
2022/10/25 04:02:11;;;;;;;10.82;2.50;;;;;;;;;;5083833;28;20340;-57
2022/10/25 04:04:36;;;;;;;17.50;2.90;;;;;;;;;;5082177;28;20073;-57
2022/10/25 04:07:01;;;;;;;7.82;2.55;;;;;;;;;;5092289;28;20044;-57
2022/10/25 04:09:26;;;;;;;14.85;2.42;;;;;;;;;;5086496;28;20031;-58
2022/10/25 04:11:52;;;;;;;16.92;2.83;;;;;;;;;;5086298;28;20020;-58
2022/10/25 04:14:17;;;;;;;10.43;2.30;;;;;;;;;;5094599;28;20056;-58
2022/10/25 04:16:42;;;;;;;11.95;2.83;;;;;;;;;;5089349;28;20477;-58
2022/10/25 04:19:07;;;;;;;12.82;2.50;;;;;;;;;;5085847;28;20031;-58
2022/10/25 04:21:32;;;;;;;9.52;2.85;;;;;;;;;;5082982;28;20028;-58
2022/10/25 04:23:58;;;;;;;11.95;2.35;;;;;;;;;;5084559;28;20052;-57
2022/10/25 04:26:23;;;;;;;10.55;2.53;;;;;;;;;;5094854;28;20027;-57
2022/10/25 04:28:49;;;;;;;12.55;2.75;;;;;;;;;;5080445;28;20096;-58
2022/10/25 04:31:14;;;;;;;10.38;2.90;;;;;;;;;;5095714;28;20102;-58
2022/10/25 04:33:39;;;;;;;12.80;2.97;;;;;;;;;;5095715;28;20028;-57
2022/10/25 04:36:04;;;;;;;14.35;2.75;;;;;;;;;;5095886;28;20038;-58
2022/10/25 04:38:30;;;;;;;15.07;2.75;;;;;;;;;;5089939;28;20020;-58
2022/10/25 04:40:55;;;;;;;7.78;2.45;;;;;;;;;;5095020;28;20019;-58
2022/10/25 04:43:21;;;;;;;9.40;2.30;;;;;;;;;;5092594;28;20032;-58
2022/10/25 04:45:46;;;;;;;10.70;2.75;;;;;;;;;;5085592;28;20056;-58
2022/10/25 04:48:11;;;;;;;10.75;2.30;;;;;;;;;;5085330;28;20540;-57
2022/10/25 04:50:36;;;;;;;13.10;2.55;;;;;;;;;;5088004;28;20402;-58
2022/10/25 04:53:02;;;;;;;13.75;2.63;;;;;;;;;;5095863;28;20020;-58
2022/10/25 04:55:28;;;;;;;11.38;2.65;;;;;;;;;;5089912;28;20024;-58
2022/10/25 04:57:53;;;;;;;14.82;3.00;;;;;;;;;;5087172;28;20028;-58
2022/10/25 05:00:18;;;;;;;10.35;2.60;;;;;;;;;;5096805;28;20027;-58
2022/10/25 05:02:43;;;;;;;11.80;2.97;;;;;;;;;;5090779;28;20101;-58
2022/10/25 05:05:08;;;;;;;10.02;2.80;;;;;;;;;;5091340;28;20067;-56
2022/10/25 05:07:34;;;;;;;17.08;2.92;;;;;;;;;;5094886;28;20088;-58
2022/10/25 05:09:59;;;;;;;12.40;2.47;;;;;;;;;;5091629;28;20672;-57
2022/10/25 05:12:24;;;;;;;9.07;2.45;;;;;;;;;;5091562;28;20099;-57
2022/10/25 05:14:49;;;;;;;10.63;2.40;;;;;;;;;;5083873;28;20099;-58
2022/10/25 05:17:15;;;;;;;14.35;2.70;;;;;;;;;;5073620;28;20042;-59
2022/10/25 05:19:40;;;;;;;13.15;3.10;;;;;;;;;;5083353;28;20293;-58
2022/10/25 05:22:05;;;;;;;10.00;2.38;;;;;;;;;;5084472;28;20398;-58
2022/10/25 05:24:31;;;;;;;9.98;2.45;;;;;;;;;;5091170;28;20112;-58
2022/10/25 05:26:56;;;;;;;12.88;2.88;;;;;;;;;;5090980;28;20436;-59
2022/10/25 05:29:21;;;;;;;10.40;2.97;;;;;;;;;;5095571;28;20161;-58
2022/10/25 05:31:47;;;;;;;22.42;3.05;;;;;;;;;;5080256;28;20024;-58
2022/10/25 05:34:12;;;;;;;11.30;3.75;;;;;;;;;;5086431;28;20015;-58
2022/10/25 05:36:37;;;;;;;18.50;3.15;;;;;;;;;;5082559;28;20013;-58
2022/10/25 05:39:02;;;;;;;13.73;2.55;;;;;;;;;;5086132;28;20546;-57
2022/10/25 05:41:28;;;;;;;15.23;3.13;;;;;;;;;;5087978;28;20020;-58
2022/10/25 05:43:53;;;;;;;13.25;2.78;;;;;;;;;;5082437;28;20505;-58
2022/10/25 05:46:21;;;;;;;14.85;2.72;;;;;;;;;;5083699;28;20028;-57
2022/10/25 05:48:47;;;;;;;14.27;2.90;;;;;;;;;;5086282;28;20024;-57
2022/10/25 05:51:12;;;;;;;11.52;2.60;;;;;;;;;;5084906;28;20024;-57
2022/10/25 05:53:40;;;;;;;13.32;3.47;;;;;;;;;;5081669;28;20560;-57
2022/10/25 05:56:06;;;;;;;20.27;3.28;;;;;;;;;;5083708;28;20052;-57
2022/10/25 05:58:31;;;;;;;10.13;2.90;;;;;;;;;;5080606;28;20552;-58
2022/10/25 06:00:57;;;;;;;11.18;2.97;;;;;;;;;;5084099;28;20424;-58
2022/10/25 06:03:23;;;;;;;13.45;2.85;;;;;;;;;;5083281;28;20055;-58
2022/10/25 06:05:48;;;;;;;14.13;2.80;;;;;;;;;;5069575;28;20036;-58
2022/10/25 06:08:13;;;;;;;10.65;2.72;;;;;;;;;;5076797;28;20020;-58
2022/10/25 06:10:41;;;;;;;9.65;2.65;;;;;;;;;;5064878;28;20085;-58
2022/10/25 06:13:12;;;;;;;11.57;2.97;;;;;;;;;;5079992;28;20125;-59
2022/10/25 06:15:50;;;;;;;15.07;2.90;;;;;;;;;;5074378;28;20028;-58
2022/10/25 06:18:27;;;;;;;16.65;3.58;;;;;;;;;;5074161;28;20035;-58
2022/10/25 06:20:53;;;;;;;13.43;3.10;;;;;;;;;;5086630;28;20477;-61
2022/10/25 06:23:18;;;;;;;12.60;2.65;;;;;;;;;;5079521;28;20040;-56
2022/10/25 06:25:43;;;;;;;10.60;2.70;;;;;;;;;;5072370;28;20027;-56
2022/10/25 06:28:09;;;;;;;10.50;3.03;;;;;;;;;;5070880;28;20123;-56
2022/10/25 06:30:34;;;;;;;16.58;3.10;;;;;;;;;;5081845;28;20066;-55
2022/10/25 06:33:00;;;;;;;10.73;2.80;;;;;;;;;;5085199;28;20042;-57
2022/10/25 06:35:25;;;;;;;7.45;2.50;;;;;;;;;;5087137;28;20115;-58
2022/10/25 06:37:50;;;;;;;11.43;2.80;;;;;;;;;;5078263;28;20020;-58
2022/10/25 06:40:15;;;;;;;11.45;2.78;;;;;;;;;;5077472;28;20185;-57
2022/10/25 06:42:41;;;;;;;10.98;2.70;;;;;;;;;;5074142;28;20032;-58
2022/10/25 06:45:06;;;;;;;18.20;2.97;;;;;;;;;;5076015;28;20445;-56
2022/10/25 06:47:32;;;;;;;11.30;2.75;;;;;;;;;;5079839;28;20107;-57
2022/10/25 06:49:57;;;;;;;15.07;2.88;;;;;;;;;;5082345;28;20046;-56
2022/10/25 06:52:22;;;;;;;9.90;2.70;;;;;;;;;;5079146;28;20163;-57
2022/10/25 06:54:47;;;;;;;11.27;2.60;;;;;;;;;;5073937;28;20477;-57
2022/10/25 06:57:13;;;;;;;16.90;3.15;;;;;;;;;;5077151;28;20466;-58
2022/10/25 06:59:38;;;;;;;15.88;3.50;;;;;;;;;;5083798;28;20042;-58
2022/10/25 07:02:03;;;;;;;16.95;2.67;;;;;;;;;;5076891;28;20104;-58
2022/10/25 07:04:31;;;;;;;11.93;2.55;;;;;;;;;;5080611;28;20132;-59
2022/10/25 07:06:56;;;;;;;12.43;2.92;;;;;;;;;;5080605;28;20036;-58
2022/10/25 07:09:21;;;;;;;10.70;2.50;;;;;;;;;;5091696;28;20262;-58
2022/10/25 07:11:47;;;;;;;8.02;2.40;;;;;;;;;;5087266;28;20012;-60
2022/10/25 07:14:12;;;;;;;11.38;2.80;;;;;;;;;;5075226;28;20055;-58
2022/10/25 07:16:37;;;;;;;7.80;2.30;;;;;;;;;;5074146;28;20028;-58
2022/10/25 07:19:03;;;;;;;10.48;3.13;;;;;;;;;;5083005;28;20351;-56
2022/10/25 07:21:28;;;;;;;6.05;2.20;;;;;;;;;;5082632;28;20469;-56
2022/10/25 07:23:53;;;;;;;12.20;2.40;;;;;;;;;;5081365;28;20067;-57
2022/10/25 07:26:19;;;;;;;10.52;2.20;;;;;;;;;;5082195;28;20051;-57
2022/10/25 07:28:45;;;;;;;6.43;2.10;;;;;;;;;;5075570;28;20027;-57
2022/10/25 07:31:11;;;;;;;7.65;2.13;;;;;;;;;;5079889;28;20032;-57
2022/10/25 07:33:36;;;;;;;12.80;2.63;;;;;;;;;;5092230;28;20028;-57
2022/10/25 07:36:03;;;;;;;9.45;2.13;;;;;;;;;;5088896;28;20161;-57
2022/10/25 07:38:28;;;;;;;9.65;2.50;;;;;;;;;;5087097;28;20032;-56
2022/10/25 07:40:54;;;;;;;9.95;2.03;;;;;;;;;;5085931;28;20027;-56
2022/10/25 07:43:19;;;;;;;7.30;2.10;;;;;;;;;;5084154;28;20063;-57
2022/10/25 07:45:44;;;;;;;9.57;2.55;;;;;;;;;;5094549;28;20380;-56
2022/10/25 07:48:09;;;;;;;6.55;2.00;;;;;;;;;;5089999;28;20139;-58
2022/10/25 07:50:34;;;;;;;10.82;2.17;;;;;;;;;;5090049;28;20153;-57
2022/10/25 07:53:00;;;;;;;12.63;2.10;;;;;;;;;;5093706;28;20028;-60
2022/10/25 07:55:25;;;;;;;7.47;1.80;;;;;;;;;;5085873;28;20034;-56
2022/10/25 07:57:50;;;;;;;10.77;2.13;;;;;;;;;;5091318;28;20253;-56
2022/10/25 08:00:16;;;;;;;6.90;2.55;;;;;;;;;;5089344;28;20051;-57
2022/10/25 08:02:41;;;;;;;11.30;2.80;;;;;;;;;;5083812;28;20480;-57
2022/10/25 08:05:08;;;;;;;8.75;3.10;;;;;;;;;;5091213;28;20474;-56
2022/10/25 08:07:33;;;;;;;8.95;2.25;;;;;;;;;;5084613;28;20492;-57
2022/10/25 08:09:58;;;;;;;12.88;2.50;;;;;;;;;;5085999;28;20113;-57
2022/10/25 08:12:23;;;;;;;5.63;2.40;;;;;;;;;;5080253;28;20040;-57
2022/10/25 08:14:49;;;;;;;10.98;2.28;;;;;;;;;;5090198;28;20024;-57
2022/10/25 08:17:15;;;;;;;9.48;2.40;;;;;;;;;;5089849;28;20027;-58
2022/10/25 08:19:40;;;;;;;6.78;2.28;;;;;;;;;;5089486;28;20035;-57
2022/10/25 08:22:05;;;;;;;8.18;1.88;;;;;;;;;;5090379;28;20027;-57
2022/10/25 08:24:31;;;;;;;10.35;1.80;;;;;;;;;;5091318;28;20032;-57
2022/10/25 08:26:57;;;;;;;14.05;2.28;;;;;;;;;;5088045;28;20020;-57
2022/10/25 08:29:22;;;;;;;9.70;1.98;;;;;;;;;;5098444;28;20496;-57
2022/10/25 08:31:47;;;;;;;5.28;1.83;;;;;;;;;;5084562;28;20016;-57
2022/10/25 08:34:12;;;;;;;7.63;1.90;;;;;;;;;;5079271;28;20492;-57
2022/10/25 08:36:38;;;;;;;10.60;2.08;;;;;;;;;;5085941;28;20052;-58
2022/10/25 08:39:03;;;;;;;11.93;2.33;;;;;;;;;;5089539;28;20016;-57
2022/10/25 08:41:47;;;;;;;11.55;2.60;;;;;;;;;;5077410;28;20028;-57
2022/10/25 08:44:15;;;;;;;12.82;2.35;;;;;;;;;;5089414;28;20031;-57
2022/10/25 08:46:52;;;;;;;12.93;2.08;;;;;;;;;;5097063;28;20031;-57
2022/10/25 08:49:18;;;;;;;10.93;1.98;;;;;;;;;;5090494;28;20092;-57
2022/10/25 08:51:45;;;;;;;8.50;1.98;;;;;;;;;;5080287;28;20358;-57
2022/10/25 08:54:16;;;;;;;8.27;2.13;;;;;;;;;;5084879;28;20109;-56
2022/10/25 08:56:41;;;;;;;6.57;1.90;;;;;;;;;;5101312;28;20527;-57
2022/10/25 08:59:08;;;;;;;15.00;2.50;;;;;;;;;;5083791;28;20032;-56
2022/10/25 09:01:42;;;;;;;8.52;2.20;;;;;;;;;;5092698;28;20039;-57
2022/10/25 09:04:07;;;;;;;6.93;2.03;;;;;;;;;;5082454;28;20029;-56
2022/10/25 09:06:39;;;;;;;10.15;1.83;;;;;;;;;;5092847;28;20328;-57
2022/10/25 09:09:07;;;;;;;8.70;2.17;;;;;;;;;;5084199;28;20095;-57
2022/10/25 09:11:35;;;;;;;8.45;1.90;;;;;;;;;;5093309;28;20050;-56
2022/10/25 09:14:01;;;;;;;5.72;2.10;;;;;;;;;;5091631;28;20107;-56
2022/10/25 09:16:41;;;;;;;7.60;1.80;;;;;;;;;;5093757;28;20104;-57
2022/10/25 09:19:06;;;;;;;;;;;;;;;;;;5086764;28;20062;-56
2022/10/25 09:21:40;;;;;;;9.50;2.20;;;;;;;;;;5089844;28;19920;-56
2022/10/25 09:24:09;;;;;;;8.80;2.22;;;;;;;;;;5087085;28;20024;-56
2022/10/25 09:26:41;;;;;;;10.50;2.20;;;;;;;;;;5088691;28;20021;-56
2022/10/25 09:29:09;;;;;;;8.23;1.98;;;;;;;;;;5080554;28;20092;-56
2022/10/25 09:31:38;;;;;;;8.10;2.00;;;;;;;;;;5094241;28;20028;-56
2022/10/25 09:34:05;;;;;;;7.72;1.92;;;;;;;;;;5089807;28;20020;-58
2022/10/25 09:36:35;;;;;;;4.57;1.80;;;;;;;;;;5092462;28;20427;-58
2022/10/25 09:39:01;;;;;;;5.60;1.73;;;;;;;;;;5094077;28;20020;-57
2022/10/25 09:41:58;;;;;;;10.85;2.17;;;;;;;;;;5090599;28;20042;-57
2022/10/25 09:44:29;;;;;;;5.72;1.70;;;;;;;;;;5063989;28;20093;-56
2022/10/25 09:47:12;;;;;;;5.03;1.52;;;;;;;;;;5092865;28;20490;-56
2022/10/25 09:49:56;;;;;;;7.78;1.75;;;;;;;;;;5091255;28;20016;-57
2022/10/25 09:52:24;;;;;;;7.07;1.83;;;;;;;;;;5082861;28;20502;-57
2022/10/25 09:54:54;;;;;;;5.57;1.55;;;;;;;;;;5085929;28;20126;-56
2022/10/25 09:57:19;;;;;;;10.38;1.83;;;;;;;;;;5087100;28;20120;-57
2022/10/25 09:59:45;;;;;;;6.85;1.80;;;;;;;;;;5093435;28;20115;-56
2022/10/25 10:02:12;;;;;;;8.55;2.33;;;;;;;;;;5088676;28;20044;-56
2022/10/25 10:04:37;;;;;;;5.05;1.55;;;;;;;;;;5089053;28;20067;-57
2022/10/25 10:07:07;;;;;;;6.80;1.80;;;;;;;;;;5079786;28;20094;-57
2022/10/25 10:09:32;;;;;;;7.25;2.00;;;;;;;;;;5089849;28;20062;-57
2022/10/25 10:11:58;;;;;;;6.97;1.60;;;;;;;;;;5095352;28;20028;-57
2022/10/25 10:14:26;;;;;;;7.07;1.67;;;;;;;;;;5092005;28;20187;-57
2022/10/25 10:16:51;;;;;;;5.78;1.92;;;;;;;;;;5095557;28;20016;-57
2022/10/25 10:19:21;;;;;;;14.57;1.90;;;;;;;;;;5078128;28;20031;-57
2022/10/25 10:21:50;;;;;;;10.15;1.90;;;;;;;;;;5098904;28;20026;-56
2022/10/25 10:24:25;;;;;;;12.25;2.20;;;;;;;;;;5084721;28;20036;-56
2022/10/25 10:26:54;;;;;;;7.43;1.75;;;;;;;;;;5082853;28;20043;-57
2022/10/25 10:29:20;;;;;;;8.23;1.92;;;;;;;;;;5091311;28;20028;-56
2022/10/25 10:31:46;;;;;;;8.40;2.00;;;;;;;;;;5088429;28;20088;-57
2022/10/25 10:34:35;;;;;;;8.07;1.70;;;;;;;;;;5085904;28;20044;-57
2022/10/25 10:37:01;;;;;;;12.32;2.03;;;;;;;;;;5077947;28;20032;-56
2022/10/25 10:39:26;;;;;;;8.57;1.83;;;;;;;;;;5090383;28;20497;-56
2022/10/25 10:42:01;;;;;;;7.47;1.75;;;;;;;;;;5081108;28;20012;-57
2022/10/25 10:44:27;;;;;;;5.03;1.88;;;;;;;;;;5089202;28;20035;-57
2022/10/25 10:46:53;;;;;;;6.55;1.70;;;;;;;;;;5086423;28;20035;-57
2022/10/25 10:49:18;;;;;;;8.45;2.08;;;;;;;;;;5073674;28;20031;-57
2022/10/25 10:51:44;;;;;;;10.70;2.05;;;;;;;;;;5089461;28;20024;-57
2022/10/25 10:54:24;;;;;;;7.40;1.90;;;;;;;;;;5086348;28;20031;-58
2022/10/25 10:56:54;;;;;;;9.30;1.48;;;;;;;;;;5087598;28;20107;-56
2022/10/25 10:59:32;;;;;;;8.45;1.60;;;;;;;;;;5090694;28;20024;-56
2022/10/25 11:02:08;;;;;;;7.43;1.75;;;;;;;;;;5088456;28;20062;-56
2022/10/25 11:04:44;;;;;;;7.75;1.70;;;;;;;;;;5085670;28;20078;-57
2022/10/25 11:07:13;;;;;;;8.57;1.60;;;;;;;;;;5091829;28;20055;-56
2022/10/25 11:09:38;;;;;;;5.45;1.67;;;;;;;;;;5081084;28;20020;-57
2022/10/25 11:12:06;;;;;;;3.60;1.55;;;;;;;;;;5091254;28;20020;-56
2022/10/25 11:14:32;;;;;;;6.35;1.77;;;;;;;;;;5085201;28;20043;-56
2022/10/25 11:17:17;;;;;;;4.63;1.90;;;;;;;;;;5090732;28;20024;-56
2022/10/25 11:19:55;;;;;;;3.38;1.40;;;;;;;;;;5088344;28;20361;-55
2022/10/25 11:22:39;;;;;;;7.22;1.90;;;;;;;;;;5089158;28;20020;-54
2022/10/25 11:25:15;;;;;;;7.68;1.50;;;;;;;;;;5082432;28;20036;-56
2022/10/25 11:27:46;;;;;;;5.45;1.75;;;;;;;;;;5087622;28;20076;-56
2022/10/25 11:30:14;;;;;;;6.53;1.95;;;;;;;;;;5078516;28;20301;-57
2022/10/25 11:32:40;;;;;;;6.07;1.67;;;;;;;;;;5080514;28;20561;-56
2022/10/25 11:35:25;;;;;;;7.90;2.03;;;;;;;;;;5079701;28;20070;-56
2022/10/25 11:38:01;;;;;;;5.22;1.75;;;;;;;;;;5088968;28;20027;-58
2022/10/25 11:40:31;;;;;;;5.47;1.50;;;;;;;;;;5100608;27;20458;-58
2022/10/25 11:43:15;;;;;;;6.80;1.70;;;;;;;;;;5095843;28;20112;-55
2022/10/25 11:45:42;;;;;;;4.75;1.60;;;;;;;;;;5093433;28;20539;-57
2022/10/25 11:48:42;;;;;;;7.75;1.40;;;;;;;;;;5091541;28;20023;-56
2022/10/25 11:51:11;;;;;;;5.78;1.63;;;;;;;;;;5047245;28;20055;-55
2022/10/25 11:53:54;;;;;;;8.35;2.00;;;;;;;;;;5085939;28;20024;-56
2022/10/25 11:56:26;;;;;;;8.68;1.52;;;;;;;;;;5086181;28;20048;-56
2022/10/25 11:58:55;;;;;;;7.93;1.70;;;;;;;;;;5073083;28;20024;-56
2022/10/25 12:01:40;;;;;;;8.20;1.95;;;;;;;;;;5084425;28;20396;-56
2022/10/25 12:04:23;;;;;;;2.70;1.08;;;;;;;;;;5084725;28;20035;-56
2022/10/25 12:06:56;;;;;;;6.45;1.35;;;;;;;;;;5082081;28;20130;-57
2022/10/25 12:09:30;;;;;;;7.13;1.65;;;;;;;;;;5082658;28;20035;-58
2022/10/25 12:12:00;;;;;;;6.70;1.60;;;;;;;;;;5080514;28;20016;-55
2022/10/25 12:14:31;;;;;;;6.88;1.60;;;;;;;;;;5082408;28;20079;-55
2022/10/25 12:16:56;;;;;;;6.43;1.70;;;;;;;;;;5082837;28;20389;-55
2022/10/25 12:19:26;;;;;;;6.28;1.60;;;;;;;;;;5082153;28;20012;-55
2022/10/25 12:21:58;;;;;;;7.35;1.50;;;;;;;;;;5082804;28;20057;-56
2022/10/25 12:24:25;;;;;;;4.15;1.52;;;;;;;;;;5083850;28;20067;-56
2022/10/25 12:26:51;;;;;;;5.75;1.63;;;;;;;;;;5083894;28;20107;-56
2022/10/25 12:29:18;;;;;;;5.32;1.45;;;;;;;;;;5086825;28;20221;-58
2022/10/25 12:31:49;;;;;;;4.50;1.55;;;;;;;;;;5086164;28;20027;-56
2022/10/25 12:34:19;;;;;;;7.75;2.15;;;;;;;;;;5095412;28;20277;-56
2022/10/25 12:36:45;;;;;;;6.70;1.50;;;;;;;;;;5088773;28;20023;-56
2022/10/25 12:39:24;;;;;;;7.32;1.52;;;;;;;;;;5083061;28;20039;-56
2022/10/25 12:41:58;;;;;;;4.60;1.55;;;;;;;;;;5087941;28;20121;-56
2022/10/25 12:44:42;;;;;;;3.35;1.48;;;;;;;;;;5084105;28;20077;-56
2022/10/25 12:47:22;;;;;;;3.58;1.42;;;;;;;;;;5081555;28;20062;-55
2022/10/25 12:50:02;;;;;;;6.78;1.70;;;;;;;;;;5089354;28;20416;-57
2022/10/25 12:52:43;;;;;;;3.28;1.45;;;;;;;;;;5088326;28;20020;-57
2022/10/25 12:55:14;;;;;;;6.88;1.63;;;;;;;;;;5091537;28;20069;-57
2022/10/25 12:57:39;;;;;;;3.40;1.33;;;;;;;;;;5084860;28;20517;-57
2022/10/25 13:00:14;;;;;;;5.28;1.52;;;;;;;;;;5094180;28;20052;-56
2022/10/25 13:02:58;;;;;;;3.55;1.50;;;;;;;;;;5086419;28;20054;-55
2022/10/25 13:05:23;;;;;;;7.03;1.48;;;;;;;;;;5091238;28;20113;-57
2022/10/25 13:07:49;;;;;;;6.35;1.52;;;;;;;;;;5088588;28;20107;-56
2022/10/25 13:10:15;;;;;;;7.10;1.13;;;;;;;;;;5082405;28;20012;-56
2022/10/25 13:12:40;;;;;;;7.90;1.67;;;;;;;;;;5088972;28;20028;-56
2022/10/25 13:15:15;;;;;;;6.53;1.50;;;;;;;;;;5088097;28;20019;-56
2022/10/25 13:17:40;;;;;;;4.25;1.70;;;;;;;;;;5070278;28;20020;-56
2022/10/25 13:20:18;;;;;;;10.65;2.17;;;;;;;;;;5088872;28;20508;-56
2022/10/25 13:22:43;;;;;;;6.45;1.60;;;;;;;;;;5092417;28;20039;-56
2022/10/25 13:25:11;;;;;;;6.50;1.92;;;;;;;;;;5087144;28;20040;-57
2022/10/25 13:27:37;;;;;;;6.05;1.58;;;;;;;;;;5090622;28;20013;-56
2022/10/25 13:30:05;;;;;;;5.07;1.73;;;;;;;;;;5084503;28;20020;-56
2022/10/25 13:32:34;;;;;;;4.45;1.60;;;;;;;;;;5092492;28;20021;-56
2022/10/25 13:35:01;;;;;;;5.75;1.80;;;;;;;;;;5093194;28;20023;-56
2022/10/25 13:37:29;;;;;;;4.20;1.60;;;;;;;;;;5088499;28;20020;-56
2022/10/25 13:39:55;;;;;;;4.10;1.50;;;;;;;;;;5094017;28;20048;-56
2022/10/25 13:42:36;;;;;;;5.25;1.77;;;;;;;;;;5086788;28;20535;-56
2022/10/25 13:45:01;;;;;;;6.93;1.90;;;;;;;;;;5089235;28;20350;-56
2022/10/25 13:47:36;;;;;;;6.50;1.60;;;;;;;;;;5089737;28;20304;-56
2022/10/25 13:50:11;;;;;;;5.28;1.90;;;;;;;;;;5091218;28;20016;-56
2022/10/25 13:52:36;;;;;;;3.63;1.70;;;;;;;;;;5086731;28;20093;-56
2022/10/25 13:55:01;;;;;;;8.07;2.17;;;;;;;;;;5094646;28;20789;-56
2022/10/25 13:57:48;;;;;;;8.15;1.90;;;;;;;;;;5081929;28;20055;-56
2022/10/25 14:00:22;;;;;;;5.85;2.03;;;;;;;;;;5081884;28;20023;-55
2022/10/25 14:03:06;;;;;;;4.68;1.70;;;;;;;;;;5086142;28;20379;-56
2022/10/25 14:05:50;;;;;;;5.68;1.70;;;;;;;;;;5091490;28;20044;-58
2022/10/25 14:08:17;;;;;;;6.45;1.90;;;;;;;;;;5091039;28;20053;-56
2022/10/25 14:10:42;;;;;;;4.57;1.80;;;;;;;;;;5087204;28;20023;-62
2022/10/25 14:13:21;;;;;;;11.15;2.58;;;;;;;;;;5091935;28;20043;-56
2022/10/25 14:15:56;;;;;;;7.63;1.70;;;;;;;;;;5088219;28;20024;-56
2022/10/25 14:18:22;;;;;;;8.70;2.00;;;;;;;;;;5089568;28;20032;-56
2022/10/25 14:20:48;;;;;;;5.28;1.60;;;;;;;;;;5088932;28;20024;-57
2022/10/25 14:23:15;;;;;;;5.38;1.70;;;;;;;;;;5076520;28;20453;-56
2022/10/25 14:25:40;;;;;;;4.18;1.50;;;;;;;;;;5085722;28;20028;-55
2022/10/25 14:28:08;;;;;;;7.68;2.00;;;;;;;;;;5084242;28;20024;-56
2022/10/25 14:30:43;;;;;;;5.90;1.80;;;;;;;;;;5090720;28;20161;-56
2022/10/25 14:33:17;;;;;;;9.32;1.90;;;;;;;;;;5087713;28;20502;-56
2022/10/25 14:35:46;;;;;;;7.18;2.33;;;;;;;;;;5089558;28;20412;-57
2022/10/25 14:38:29;;;;;;;6.37;1.70;;;;;;;;;;5087950;28;20028;-56
2022/10/25 14:40:57;;;;;;;8.30;1.90;;;;;;;;;;5085277;28;20382;-56
2022/10/25 14:43:26;;;;;;;4.78;1.67;;;;;;;;;;5082784;28;20443;-56
2022/10/25 14:46:17;;;;;;;6.15;1.77;;;;;;;;;;5086284;28;20433;-57